Time;durP1;ratioP1;P1;durP2;ratioP2;P2;SDS_P1;SDS_P2;PMS_P1;PMS_P2;Temp;Humidity;BMP_temperature;BMP_pressure;BME280_temperature;BME280_humidity;BME280_pressure;Samples;Min_cycle;Max_cycle;Signal;HPM_P1;HPM_P2
2021/11/30 00:02:07;;;;;;;4.57;3.27;;;3.50;77.80;;;;;;4968735;28;20294;-68
2021/11/30 00:04:34;;;;;;;5.10;2.87;;;3.40;77.80;;;;;;4954697;29;20230;-68
2021/11/30 00:07:02;;;;;;;5.77;3.10;;;3.50;77.70;;;;;;4956136;28;20203;-68
2021/11/30 00:12:16;;;;;;;4.60;3.07;;;3.50;77.20;;;;;;4952047;29;20214;-68
2021/11/30 00:14:45;;;;;;;6.33;3.50;;;3.50;77.00;;;;;;4955618;28;20252;-68
2021/11/30 00:17:14;;;;;;;4.77;2.80;;;3.50;76.70;;;;;;4956288;28;20582;-68
2021/11/30 00:19:43;;;;;;;4.43;2.57;;;3.50;76.60;;;;;;4955271;28;20221;-68
2021/11/30 00:22:12;;;;;;;4.00;2.53;;;3.50;76.40;;;;;;4955803;28;20641;-68
2021/11/30 00:24:39;;;;;;;4.27;2.17;;;3.50;76.40;;;;;;4970638;28;20284;-68
2021/11/30 00:27:12;;;;;;;3.80;2.43;;;3.50;76.20;;;;;;4967804;28;20212;-68
2021/11/30 00:29:39;;;;;;;3.90;2.77;;;3.50;76.10;;;;;;4971657;28;20581;-68
2021/11/30 00:32:08;;;;;;;2.97;2.10;;;3.50;75.50;;;;;;4952543;28;20661;-68
2021/11/30 00:34:35;;;;;;;2.87;2.20;;;3.50;75.50;;;;;;4956060;28;20238;-68
2021/11/30 00:37:04;;;;;;;5.43;2.97;;;3.40;75.60;;;;;;4968429;28;20643;-68
2021/11/30 00:39:31;;;;;;;4.37;2.63;;;3.40;75.70;;;;;;4955636;29;20207;-68
2021/11/30 00:42:00;;;;;;;4.00;2.50;;;3.40;75.60;;;;;;4970438;28;20217;-68
2021/11/30 00:44:30;;;;;;;3.00;1.80;;;3.40;75.60;;;;;;4953745;28;20249;-68
2021/11/30 00:46:57;;;;;;;2.83;2.27;;;3.40;75.40;;;;;;4953945;29;20243;-68
2021/11/30 00:49:26;;;;;;;7.00;2.30;;;3.50;75.30;;;;;;4972170;28;20522;-69
2021/11/30 00:51:56;;;;;;;13.37;2.70;;;3.50;74.50;;;;;;4971743;28;20197;-69
2021/11/30 00:54:25;;;;;;;3.30;1.90;;;3.40;74.30;;;;;;4968501;28;20248;-69
2021/11/30 00:56:53;;;;;;;4.83;1.97;;;3.40;74.40;;;;;;4956761;28;20500;-68
2021/11/30 00:59:26;;;;;;;8.07;2.40;;;3.30;74.00;;;;;;4971409;28;20713;-68
2021/11/30 01:01:58;;;;;;;3.23;2.17;;;3.30;74.00;;;;;;4968430;28;20702;-68
2021/11/30 01:04:27;;;;;;;5.07;1.67;;;3.30;74.20;;;;;;4954536;29;20253;-68
2021/11/30 01:06:55;;;;;;;2.13;1.67;;;3.30;74.20;;;;;;4954799;28;20233;-68
2021/11/30 01:09:23;;;;;;;5.83;2.23;;;3.30;74.00;;;;;;4956035;28;20297;-68
2021/11/30 01:11:51;;;;;;;2.57;1.87;;;3.30;74.10;;;;;;4969988;28;20210;-68
2021/11/30 01:14:18;;;;;;;2.47;2.10;;;3.30;73.60;;;;;;4952734;29;20206;-68
2021/11/30 01:16:46;;;;;;;3.20;2.23;;;3.40;73.60;;;;;;4952546;28;20300;-68
2021/11/30 01:19:14;;;;;;;2.27;1.83;;;3.40;73.80;;;;;;4971068;28;20207;-68
2021/11/30 01:21:41;;;;;;;3.33;2.17;;;3.40;73.70;;;;;;4955549;28;20616;-68
2021/11/30 01:24:09;;;;;;;4.07;1.53;;;3.40;73.40;;;;;;4955580;28;20658;-69
2021/11/30 01:26:37;;;;;;;1.67;1.43;;;3.30;73.10;;;;;;4954749;29;20717;-69
2021/11/30 01:29:05;;;;;;;2.27;1.80;;;3.40;73.10;;;;;;4967657;28;20322;-68
2021/11/30 01:31:33;;;;;;;4.60;1.30;;;3.40;72.90;;;;;;4955445;28;20210;-68
2021/11/30 01:34:00;;;;;;;1.73;1.50;;;3.40;72.70;;;;;;4970665;28;20768;-68
2021/11/30 01:36:28;;;;;;;1.83;1.70;;;3.40;72.20;;;;;;4955646;28;20236;-68
2021/11/30 01:38:59;;;;;;;1.73;1.50;;;3.40;71.80;;;;;;4955705;28;20610;-68
2021/11/30 01:41:28;;;;;;;2.03;1.50;;;3.40;71.80;;;;;;4955403;28;20205;-68
2021/11/30 01:43:58;;;;;;;1.87;1.50;;;3.40;71.40;;;;;;4970631;28;20249;-68
2021/11/30 01:46:39;;;;;;;2.27;1.50;;;3.40;71.00;;;;;;4970418;28;20245;-68
2021/11/30 01:51:37;;;;;;;1.60;1.37;;;3.40;70.70;;;;;;4954149;28;20304;-69
2021/11/30 01:54:04;;;;;;;2.43;1.60;;;3.40;70.60;;;;;;4969670;28;20205;-69
2021/11/30 01:56:32;;;;;;;2.57;1.60;;;3.40;70.10;;;;;;4970425;28;20309;-68
2021/11/30 01:59:00;;;;;;;2.20;1.60;;;3.50;70.20;;;;;;4954212;28;20695;-68
2021/11/30 02:01:28;;;;;;;2.17;1.70;;;3.50;70.10;;;;;;4970069;28;20214;-68
2021/11/30 02:03:55;;;;;;;2.63;1.50;;;3.50;70.00;;;;;;4955444;28;20217;-68
2021/11/30 02:06:23;;;;;;;1.70;1.60;;;3.50;70.10;;;;;;4954983;28;20213;-68
2021/11/30 02:08:50;;;;;;;2.33;1.57;;;3.40;70.50;;;;;;4955390;28;20198;-68
2021/11/30 02:11:18;;;;;;;2.20;1.40;;;3.40;70.80;;;;;;4955159;28;20215;-69
2021/11/30 02:13:45;;;;;;;2.30;1.87;;;3.40;70.90;;;;;;4955642;28;20288;-69
2021/11/30 02:16:13;;;;;;;2.60;1.60;;;3.30;70.70;;;;;;4969700;28;20300;-68
2021/11/30 02:18:43;;;;;;;3.70;1.60;;;3.30;70.50;;;;;;4955093;28;20200;-68
2021/11/30 02:21:11;;;;;;;3.00;1.77;;;3.30;70.70;;;;;;4969719;28;20634;-68
2021/11/30 02:26:12;;;;;;;4.93;1.97;;;3.20;71.00;;;;;;4969214;28;20300;-68
2021/11/30 02:28:43;;;;;;;2.77;1.60;;;3.20;71.20;;;;;;4951499;29;20288;-68
2021/11/30 02:31:14;;;;;;;1.93;1.70;;;3.20;71.30;;;;;;4953825;28;20589;-68
2021/11/30 02:33:42;;;;;;;1.73;1.40;;;3.20;71.30;;;;;;4955050;28;20603;-68
2021/11/30 02:36:32;;;;;;;2.27;1.50;;;3.10;71.00;;;;;;4953897;29;20244;-68
2021/11/30 02:39:04;;;;;;;3.47;1.60;;;3.10;70.90;;;;;;4954903;29;20519;-68
2021/11/30 02:41:31;;;;;;;1.73;1.60;;;3.10;70.90;;;;;;4966566;28;20210;-68
2021/11/30 02:43:59;;;;;;;2.97;1.67;;;3.10;71.00;;;;;;4969991;28;20338;-68
2021/11/30 02:46:45;;;;;;;2.37;1.70;;;3.10;71.20;;;;;;4953746;28;20651;-68
2021/11/30 02:49:15;;;;;;;2.53;1.77;;;3.00;71.00;;;;;;4954058;28;20298;-68
2021/11/30 02:51:47;;;;;;;2.43;1.40;;;3.00;71.10;;;;;;4954641;28;20233;-68
2021/11/30 02:54:20;;;;;;;1.63;1.20;;;3.00;71.20;;;;;;4953922;28;20525;-68
2021/11/30 02:56:50;;;;;;;2.27;1.63;;;3.00;71.10;;;;;;4963563;28;20249;-68
2021/11/30 02:59:17;;;;;;;1.50;1.40;;;3.00;71.00;;;;;;4954232;28;20217;-68
2021/11/30 03:01:54;;;;;;;1.67;1.37;;;3.00;70.60;;;;;;4954351;28;20523;-68
2021/11/30 03:04:22;;;;;;;3.00;1.40;;;3.00;70.40;;;;;;4954329;29;20218;-68
2021/11/30 03:06:51;;;;;;;2.87;1.40;;;3.00;70.30;;;;;;4953843;28;20206;-68
2021/11/30 03:09:19;;;;;;;2.60;1.60;;;3.00;70.40;;;;;;4955026;28;20285;-68
2021/11/30 03:11:46;;;;;;;3.40;1.90;;;3.00;70.50;;;;;;4954487;28;20206;-68
2021/11/30 03:14:14;;;;;;;2.27;1.53;;;3.00;70.50;;;;;;4954205;29;20247;-68
2021/11/30 03:16:42;;;;;;;2.03;1.40;;;3.00;70.60;;;;;;4969684;28;20242;-68
2021/11/30 03:19:09;;;;;;;1.87;1.10;;;2.90;70.70;;;;;;4965173;28;20235;-68
2021/11/30 03:21:37;;;;;;;3.10;1.80;;;2.90;70.50;;;;;;4953877;28;20247;-68
2021/11/30 03:24:04;;;;;;;2.77;1.70;;;2.90;70.70;;;;;;4950104;29;20289;-68
2021/11/30 03:26:31;;;;;;;3.80;1.80;;;2.90;70.90;;;;;;4954088;28;20219;-68
2021/11/30 03:28:59;;;;;;;3.13;1.40;;;2.90;71.10;;;;;;4953697;28;20217;-68
2021/11/30 03:34:15;;;;;;;3.13;1.50;;;2.80;71.20;;;;;;4956366;29;20657;-68
2021/11/30 03:36:45;;;;;;;1.57;1.20;;;2.80;71.30;;;;;;4963966;28;20256;-68
2021/11/30 03:39:15;;;;;;;1.93;1.57;;;2.80;71.50;;;;;;4957674;28;20229;-68
2021/11/30 03:41:44;;;;;;;1.73;1.33;;;2.70;71.60;;;;;;4957360;28;20301;-68
2021/11/30 03:44:12;;;;;;;1.47;1.23;;;2.70;71.80;;;;;;4956490;29;20288;-68
2021/11/30 03:46:43;;;;;;;2.07;1.40;;;2.70;71.70;;;;;;4953696;29;20293;-68
2021/11/30 03:49:12;;;;;;;1.67;1.30;;;2.60;72.00;;;;;;4957561;28;20562;-68
2021/11/30 03:51:40;;;;;;;2.33;1.50;;;2.60;72.30;;;;;;4955434;29;20285;-68
2021/11/30 03:54:08;;;;;;;2.37;1.53;;;2.60;72.90;;;;;;4957615;28;20692;-68
2021/11/30 03:56:37;;;;;;;4.13;1.73;;;2.60;72.30;;;;;;4972049;28;20229;-69
2021/11/30 03:59:05;;;;;;;5.70;1.67;;;2.60;72.10;;;;;;4956651;29;20229;-69
2021/11/30 04:01:33;;;;;;;1.63;1.37;;;2.50;71.80;;;;;;4956030;28;20210;-69
2021/11/30 04:04:02;;;;;;;1.67;1.20;;;2.50;71.60;;;;;;4972411;28;20282;-69
2021/11/30 04:06:29;;;;;;;1.70;1.10;;;2.60;71.50;;;;;;4954929;29;20214;-69
2021/11/30 04:08:57;;;;;;;3.57;1.50;;;2.50;71.30;;;;;;4957451;28;20292;-69
2021/11/30 04:11:24;;;;;;;4.30;1.70;;;2.60;71.30;;;;;;4971803;28;20211;-69
2021/11/30 04:13:51;;;;;;;7.73;1.90;;;2.60;71.00;;;;;;4957220;28;20284;-69
2021/11/30 04:16:19;;;;;;;1.30;1.20;;;2.60;71.00;;;;;;4968583;28;20722;-69
2021/11/30 04:18:46;;;;;;;2.13;1.43;;;2.60;71.10;;;;;;4971121;28;20210;-69
2021/11/30 04:21:13;;;;;;;2.17;1.90;;;2.60;71.00;;;;;;4971499;28;20233;-69
2021/11/30 04:23:41;;;;;;;3.80;1.57;;;2.60;70.90;;;;;;4955854;28;20237;-69
2021/11/30 04:26:08;;;;;;;2.53;1.40;;;2.60;71.00;;;;;;4954674;28;20240;-69
2021/11/30 04:28:38;;;;;;;2.60;1.40;;;2.60;71.00;;;;;;4956978;28;20338;-69
2021/11/30 04:31:05;;;;;;;5.63;2.00;;;2.60;71.00;;;;;;4970540;28;20209;-69
2021/11/30 04:33:32;;;;;;;2.87;1.50;;;2.60;70.80;;;;;;4970294;28;20249;-69
2021/11/30 04:36:00;;;;;;;1.73;1.33;;;2.60;70.70;;;;;;4971971;28;20312;-69
2021/11/30 04:38:27;;;;;;;2.30;1.67;;;2.60;70.60;;;;;;4955809;28;20305;-69
2021/11/30 04:40:54;;;;;;;2.60;1.00;;;2.60;70.80;;;;;;4956470;28;20226;-69
2021/11/30 04:43:21;;;;;;;1.70;1.10;;;2.60;70.80;;;;;;4956721;28;20617;-69
2021/11/30 04:48:16;;;;;;;2.47;1.47;;;2.60;71.10;;;;;;4956693;28;20226;-69
2021/11/30 04:50:46;;;;;;;2.07;1.60;;;2.60;71.00;;;;;;4954342;28;20292;-69
2021/11/30 04:53:13;;;;;;;1.40;1.27;;;2.60;71.10;;;;;;4955285;29;20206;-69
2021/11/30 04:55:40;;;;;;;3.03;0.97;;;2.50;71.20;;;;;;4955120;29;20220;-69
2021/11/30 04:58:08;;;;;;;1.33;1.10;;;2.50;71.10;;;;;;4953930;28;20264;-69
2021/11/30 05:00:36;;;;;;;3.67;1.67;;;2.60;70.70;;;;;;4951492;28;20237;-69
2021/11/30 05:03:06;;;;;;;3.87;1.17;;;2.60;70.40;;;;;;4956472;28;20233;-69
2021/11/30 05:05:34;;;;;;;1.47;1.27;;;2.60;70.00;;;;;;4955910;28;20244;-69
2021/11/30 05:08:02;;;;;;;1.67;1.03;;;2.60;69.60;;;;;;4955130;29;20203;-69
2021/11/30 05:10:29;;;;;;;2.03;1.30;;;2.60;69.30;;;;;;4952457;28;20249;-69
2021/11/30 05:12:57;;;;;;;2.17;1.40;;;2.60;69.10;;;;;;4952479;28;20308;-69
2021/11/30 05:15:24;;;;;;;2.67;1.27;;;2.60;68.50;;;;;;4955988;28;20313;-69
2021/11/30 05:17:51;;;;;;;1.70;1.57;;;2.60;68.40;;;;;;4955305;28;20544;-69
2021/11/30 05:20:19;;;;;;;0.90;0.90;;;2.60;68.40;;;;;;4955883;28;20466;-69
2021/11/30 05:22:46;;;;;;;1.33;1.20;;;2.60;68.40;;;;;;4959501;28;20270;-69
2021/11/30 05:25:23;;;;;;;1.80;1.30;;;2.60;68.50;;;;;;4955261;28;20225;-69
2021/11/30 05:27:51;;;;;;;2.53;1.20;;;2.50;68.50;;;;;;4955761;28;20248;-69
2021/11/30 05:30:20;;;;;;;1.87;1.30;;;2.50;68.70;;;;;;4970878;28;20210;-69
2021/11/30 05:32:49;;;;;;;2.93;1.43;;;2.50;68.70;;;;;;4970701;28;20730;-69
2021/11/30 05:35:17;;;;;;;2.00;1.37;;;2.50;68.80;;;;;;4955688;28;20334;-69
2021/11/30 05:37:45;;;;;;;3.90;1.33;;;2.50;69.00;;;;;;4952388;29;20209;-69
2021/11/30 05:40:12;;;;;;;1.70;1.60;;;2.50;69.20;;;;;;4955630;28;20198;-69
2021/11/30 05:42:39;;;;;;;10.00;4.20;;;2.50;69.40;;;;;;4955471;28;20552;-69
2021/11/30 05:45:07;;;;;;;18.27;7.30;;;2.40;69.50;;;;;;4969193;28;20249;-69
2021/11/30 05:47:34;;;;;;;19.13;6.90;;;2.40;69.10;;;;;;4955313;28;20293;-69
2021/11/30 05:50:02;;;;;;;20.47;8.23;;;2.40;68.90;;;;;;4955752;28;20203;-69
2021/11/30 05:52:30;;;;;;;28.37;10.23;;;2.40;68.80;;;;;;4969803;28;20742;-69
2021/11/30 05:54:57;;;;;;;29.40;11.20;;;2.40;68.60;;;;;;4970094;28;20678;-69
2021/11/30 05:57:25;;;;;;;29.77;11.97;;;2.40;68.40;;;;;;4965937;28;20220;-69
2021/11/30 05:59:53;;;;;;;32.73;11.43;;;2.40;68.20;;;;;;4955847;28;20266;-69
2021/11/30 06:02:22;;;;;;;24.13;8.97;;;2.40;68.10;;;;;;4954150;28;20256;-69
2021/11/30 06:04:50;;;;;;;12.77;5.47;;;2.30;67.80;;;;;;4955290;28;20217;-69
2021/11/30 06:07:17;;;;;;;6.60;3.33;;;2.30;67.70;;;;;;4954860;28;20541;-69
2021/11/30 06:09:44;;;;;;;5.93;2.70;;;2.30;67.90;;;;;;4955341;28;20201;-69
2021/11/30 06:12:12;;;;;;;4.67;1.53;;;2.30;68.10;;;;;;4961740;28;20677;-69
2021/11/30 06:14:39;;;;;;;5.33;1.80;;;2.30;68.00;;;;;;4952210;29;20285;-69
2021/11/30 06:17:09;;;;;;;2.10;1.70;;;2.30;68.50;;;;;;4958973;28;20220;-69
2021/11/30 06:19:37;;;;;;;3.00;1.73;;;2.30;67.80;;;;;;4952943;29;20217;-69
2021/11/30 06:22:07;;;;;;;1.50;1.27;;;2.20;67.90;;;;;;4954917;28;20317;-69
2021/11/30 06:24:34;;;;;;;3.20;1.60;;;2.20;68.10;;;;;;4955359;28;20237;-69
2021/11/30 06:27:02;;;;;;;2.80;1.40;;;2.20;68.40;;;;;;4955402;28;20304;-69
2021/11/30 06:29:29;;;;;;;3.23;1.70;;;2.20;68.80;;;;;;4955205;29;20286;-69
2021/11/30 06:31:56;;;;;;;1.63;1.30;;;2.20;69.10;;;;;;4969635;28;20210;-69
2021/11/30 06:34:24;;;;;;;4.70;1.43;;;2.20;69.50;;;;;;4967013;28;20221;-69
2021/11/30 06:36:51;;;;;;;4.30;1.97;;;2.20;69.80;;;;;;4954545;28;20661;-69
2021/11/30 06:39:18;;;;;;;4.90;1.90;;;2.20;70.20;;;;;;4969915;28;20627;-69
2021/11/30 06:41:46;;;;;;;5.93;3.33;;;2.20;70.20;;;;;;4954090;29;20304;-69
2021/11/30 06:44:13;;;;;;;5.03;2.47;;;2.20;70.00;;;;;;4953398;28;20653;-69
2021/11/30 06:46:40;;;;;;;4.27;2.30;;;2.20;69.60;;;;;;4969319;28;20717;-69
2021/11/30 06:49:09;;;;;;;6.23;2.20;;;2.30;69.30;;;;;;4951394;29;20204;-69
2021/11/30 06:51:36;;;;;;;2.17;1.63;;;2.30;68.90;;;;;;4965953;28;20206;-69
2021/11/30 06:54:03;;;;;;;2.50;2.00;;;2.40;68.00;;;;;;4969672;28;20214;-69
2021/11/30 06:56:31;;;;;;;5.03;2.20;;;2.50;67.60;;;;;;4953432;28;20229;-69
2021/11/30 06:58:58;;;;;;;6.73;2.57;;;2.60;67.00;;;;;;4954571;28;20293;-69
2021/11/30 07:01:28;;;;;;;4.27;2.23;;;2.70;66.60;;;;;;4969082;28;20604;-69
2021/11/30 07:03:57;;;;;;;5.40;2.13;;;2.80;66.20;;;;;;4955276;28;20213;-69
2021/11/30 07:09:16;;;;;;;4.60;2.57;;;2.90;65.70;;;;;;4957053;28;20211;-69
2021/11/30 07:11:55;;;;;;;6.17;3.63;;;2.90;65.30;;;;;;4969157;28;20277;-69
2021/11/30 07:14:22;;;;;;;8.80;3.20;;;2.90;65.80;;;;;;4956858;29;20555;-69
2021/11/30 07:16:50;;;;;;;9.30;4.40;;;3.00;66.20;;;;;;4958302;28;20253;-69
2021/11/30 07:19:17;;;;;;;9.13;3.70;;;3.00;66.40;;;;;;4958651;28;20230;-69
2021/11/30 07:21:44;;;;;;;5.40;3.20;;;3.10;66.30;;;;;;4972362;28;20329;-69
2021/11/30 07:24:12;;;;;;;6.27;2.83;;;3.20;66.20;;;;;;4958103;28;20284;-69
2021/11/30 07:26:39;;;;;;;3.03;2.30;;;3.20;65.90;;;;;;4957591;29;20697;-69
2021/11/30 07:29:26;;;;;;;4.17;1.83;;;3.30;66.00;;;;;;4973098;28;20293;-69
2021/11/30 07:31:54;;;;;;;2.47;1.60;;;3.40;65.90;;;;;;4957707;28;20205;-69
2021/11/30 07:34:21;;;;;;;4.87;2.27;;;3.50;65.50;;;;;;4958112;28;20505;-69
2021/11/30 07:36:48;;;;;;;4.17;2.33;;;3.50;65.40;;;;;;4972137;28;20582;-69
2021/11/30 07:39:16;;;;;;;7.83;4.10;;;3.50;65.30;;;;;;4956623;28;20284;-69
2021/11/30 07:41:43;;;;;;;9.33;4.63;;;3.60;65.40;;;;;;4972433;28;20374;-69
2021/11/30 07:44:11;;;;;;;12.30;5.57;;;3.70;65.50;;;;;;4972687;28;20612;-69
2021/11/30 07:46:39;;;;;;;9.03;4.37;;;3.80;65.00;;;;;;4956617;29;20237;-69
2021/11/30 07:49:07;;;;;;;6.33;3.03;;;3.90;64.70;;;;;;4960811;28;20316;-70
2021/11/30 07:51:34;;;;;;;4.87;2.60;;;4.00;64.40;;;;;;4952814;29;20204;-70
2021/11/30 07:54:02;;;;;;;6.10;3.00;;;4.20;63.90;;;;;;4957533;28;20502;-70
2021/11/30 07:56:31;;;;;;;6.43;3.47;;;4.30;63.10;;;;;;4972050;28;20257;-69
2021/11/30 07:58:59;;;;;;;3.57;2.40;;;4.50;62.40;;;;;;4957452;28;20702;-69
2021/11/30 08:01:26;;;;;;;6.87;2.90;;;4.60;61.60;;;;;;4957423;28;20275;-69
2021/11/30 08:03:54;;;;;;;3.50;2.03;;;4.80;61.40;;;;;;4954124;29;20639;-69
2021/11/30 08:06:21;;;;;;;3.20;1.97;;;4.90;60.90;;;;;;4956954;28;20245;-69
2021/11/30 08:08:50;;;;;;;3.77;2.10;;;5.10;60.20;;;;;;4957007;29;20623;-69
2021/11/30 08:11:18;;;;;;;3.97;1.67;;;5.10;59.90;;;;;;4954204;28;20209;-69
2021/11/30 08:13:45;;;;;;;4.13;1.93;;;5.20;59.80;;;;;;4957018;28;20581;-69
2021/11/30 08:16:12;;;;;;;3.47;1.63;;;5.30;60.10;;;;;;4955679;28;20593;-69
2021/11/30 08:18:40;;;;;;;2.90;1.80;;;5.30;60.20;;;;;;4956939;29;20217;-69
2021/11/30 08:21:07;;;;;;;3.97;1.80;;;5.30;60.00;;;;;;4967975;28;20258;-69
2021/11/30 08:23:34;;;;;;;7.77;1.50;;;5.40;60.10;;;;;;4969673;28;20207;-69
2021/11/30 08:26:03;;;;;;;4.60;1.40;;;5.40;60.30;;;;;;4956532;28;20229;-69
2021/11/30 08:28:30;;;;;;;2.57;1.70;;;5.40;60.50;;;;;;4956964;28;20582;-69
2021/11/30 08:30:58;;;;;;;3.50;1.90;;;5.50;60.90;;;;;;4956602;28;20268;-69
2021/11/30 08:33:25;;;;;;;4.60;1.70;;;5.50;61.00;;;;;;4955195;28;20248;-68
2021/11/30 08:35:54;;;;;;;4.97;2.10;;;5.60;61.00;;;;;;4956964;28;20211;-68
2021/11/30 08:38:22;;;;;;;3.40;2.20;;;5.70;61.30;;;;;;4952169;29;20592;-68
2021/11/30 08:40:50;;;;;;;4.27;1.90;;;5.70;61.40;;;;;;4971594;28;20304;-69
2021/11/30 08:43:17;;;;;;;2.43;2.03;;;5.70;61.60;;;;;;4955633;28;20226;-69
2021/11/30 08:45:45;;;;;;;4.20;1.83;;;5.80;61.50;;;;;;4956089;28;20307;-68
2021/11/30 08:48:12;;;;;;;5.73;2.40;;;5.90;61.50;;;;;;4962356;28;20224;-68
2021/11/30 08:50:40;;;;;;;3.53;1.67;;;6.00;61.20;;;;;;4956311;28;20299;-68
2021/11/30 08:53:08;;;;;;;6.97;2.50;;;6.10;61.00;;;;;;4956770;28;20243;-68
2021/11/30 08:55:35;;;;;;;3.77;1.83;;;6.10;60.80;;;;;;4970573;28;20299;-68
2021/11/30 08:58:03;;;;;;;4.80;1.97;;;6.20;60.50;;;;;;4971098;28;20299;-68
2021/11/30 09:00:31;;;;;;;6.17;2.10;;;6.30;60.30;;;;;;4955972;28;20256;-68
2021/11/30 09:03:00;;;;;;;2.70;1.57;;;6.40;60.40;;;;;;4953313;29;20266;-68
2021/11/30 09:05:28;;;;;;;5.43;2.00;;;6.50;60.50;;;;;;4971038;28;20216;-68
2021/11/30 09:07:56;;;;;;;3.37;1.67;;;6.60;60.50;;;;;;4954474;29;20214;-68
2021/11/30 09:10:24;;;;;;;10.23;2.53;;;6.60;60.30;;;;;;4951764;28;20425;-68
2021/11/30 09:12:52;;;;;;;4.47;2.27;;;6.70;60.40;;;;;;4970230;28;20209;-68
2021/11/30 09:15:20;;;;;;;4.07;2.30;;;6.70;60.50;;;;;;4954372;28;20197;-68
2021/11/30 09:17:50;;;;;;;5.47;2.47;;;6.80;60.60;;;;;;4954758;28;20211;-68
2021/11/30 09:20:17;;;;;;;3.73;2.20;;;6.90;60.20;;;;;;4970774;28;20237;-68
2021/11/30 09:22:45;;;;;;;3.53;2.30;;;6.90;59.90;;;;;;4970639;28;20327;-68
2021/11/30 09:25:13;;;;;;;7.43;2.50;;;7.00;59.80;;;;;;4955804;28;20296;-68
2021/11/30 09:27:40;;;;;;;2.50;1.97;;;7.00;59.30;;;;;;4969988;28;20252;-68
2021/11/30 09:30:09;;;;;;;4.67;2.60;;;7.10;58.80;;;;;;4952029;28;20253;-68
2021/11/30 09:32:39;;;;;;;6.00;2.33;;;7.20;58.20;;;;;;4956197;28;20650;-68
2021/11/30 09:35:09;;;;;;;2.40;2.20;;;7.20;57.90;;;;;;4955404;29;20284;-69
2021/11/30 09:37:38;;;;;;;4.10;2.43;;;7.30;58.00;;;;;;4956114;28;20212;-69
2021/11/30 09:40:12;;;;;;;3.70;2.50;;;7.30;58.20;;;;;;4955184;29;20221;-69
2021/11/30 09:42:42;;;;;;;3.07;2.43;;;7.40;58.40;;;;;;4954008;28;20560;-69
2021/11/30 09:45:11;;;;;;;3.37;2.47;;;7.50;58.70;;;;;;4955559;28;20277;-69
2021/11/30 09:47:39;;;;;;;4.77;2.20;;;7.60;58.60;;;;;;4944201;28;20359;-69
2021/11/30 09:50:10;;;;;;;3.87;2.30;;;7.60;58.10;;;;;;4955199;29;20283;-69
2021/11/30 09:52:38;;;;;;;5.77;2.10;;;7.70;57.60;;;;;;4951530;29;20213;-69
2021/11/30 09:55:07;;;;;;;3.67;2.57;;;7.80;57.60;;;;;;4966346;28;20243;-69
2021/11/30 09:57:35;;;;;;;3.40;2.27;;;7.80;57.00;;;;;;4953493;28;20296;-69
2021/11/30 10:00:05;;;;;;;4.00;2.57;;;7.80;57.00;;;;;;4955548;28;20288;-69
2021/11/30 10:02:54;;;;;;;5.63;2.57;;;7.90;57.10;;;;;;4969106;28;20662;-69
2021/11/30 10:05:23;;;;;;;9.03;2.60;;;7.90;57.30;;;;;;4952635;28;20243;-69
2021/11/30 10:07:52;;;;;;;2.73;2.10;;;8.00;57.70;;;;;;4955260;28;20240;-69
2021/11/30 10:10:30;;;;;;;5.07;2.20;;;8.00;57.70;;;;;;4950979;29;20216;-69
2021/11/30 10:13:04;;;;;;;3.80;2.10;;;8.10;57.70;;;;;;4955259;28;20207;-69
2021/11/30 10:15:44;;;;;;;4.73;2.57;;;8.10;57.50;;;;;;4953925;28;20216;-69
2021/11/30 10:18:26;;;;;;;9.37;1.87;;;8.20;57.40;;;;;;4953350;29;20204;-69
2021/11/30 10:21:19;;;;;;;2.53;2.00;;;8.20;57.10;;;;;;4953439;29;20272;-69
2021/11/30 10:24:00;;;;;;;3.33;2.10;;;8.20;57.10;;;;;;4968963;28;20207;-68
2021/11/30 10:26:35;;;;;;;3.33;1.87;;;8.30;56.40;;;;;;4966835;28;20226;-68
2021/11/30 10:29:12;;;;;;;6.13;2.00;;;8.40;56.50;;;;;;4954339;29;20647;-68
2021/11/30 10:31:45;;;;;;;3.57;2.07;;;8.40;56.50;;;;;;4953012;29;20569;-68
2021/11/30 10:34:22;;;;;;;2.23;1.90;;;8.40;56.60;;;;;;4966880;28;20646;-68
2021/11/30 10:36:59;;;;;;;5.77;2.20;;;8.50;56.60;;;;;;4965206;28;20251;-68
2021/11/30 10:39:33;;;;;;;4.87;1.80;;;8.60;56.50;;;;;;4957337;28;20647;-68
2021/11/30 10:42:24;;;;;;;3.63;1.97;;;8.70;56.50;;;;;;4955534;29;20507;-68
2021/11/30 10:44:57;;;;;;;5.93;2.07;;;8.80;56.10;;;;;;4968187;28;20237;-68
2021/11/30 10:47:26;;;;;;;3.07;2.20;;;8.80;55.20;;;;;;4973053;28;20296;-68
2021/11/30 10:50:01;;;;;;;4.43;2.10;;;8.90;55.40;;;;;;4973782;28;20205;-68
2021/11/30 10:52:30;;;;;;;4.03;1.70;;;9.00;55.60;;;;;;4958296;28;20613;-68
2021/11/30 10:55:13;;;;;;;3.97;2.03;;;9.10;55.60;;;;;;4973104;28;20236;-68
2021/11/30 10:57:42;;;;;;;4.37;1.97;;;9.20;55.70;;;;;;4971956;28;20224;-68
2021/11/30 11:00:24;;;;;;;2.70;2.03;;;9.30;54.90;;;;;;4955525;29;20208;-68
2021/11/30 11:03:07;;;;;;;3.43;2.50;;;9.40;55.10;;;;;;4958687;28;20389;-68
2021/11/30 11:05:41;;;;;;;3.13;1.90;;;9.50;55.40;;;;;;4971047;28;20225;-68
2021/11/30 11:08:19;;;;;;;2.57;1.93;;;9.60;55.10;;;;;;4957369;28;20234;-69
2021/11/30 11:10:49;;;;;;;2.60;1.80;;;9.70;55.30;;;;;;4941435;29;20210;-69
2021/11/30 11:13:29;;;;;;;3.37;1.60;;;9.80;55.80;;;;;;4958582;28;20215;-69
2021/11/30 11:16:03;;;;;;;2.87;1.80;;;9.90;56.10;;;;;;4971097;28;20309;-69
2021/11/30 11:18:39;;;;;;;1.80;1.50;;;10.00;56.90;;;;;;4968359;28;20300;-68
2021/11/30 11:21:17;;;;;;;2.67;1.37;;;10.10;56.70;;;;;;4956926;28;20678;-68
2021/11/30 11:24:12;;;;;;;1.33;1.20;;;10.30;56.20;;;;;;4955783;29;20295;-69
2021/11/30 11:26:49;;;;;;;1.57;1.20;;;10.40;55.30;;;;;;4957263;29;20670;-68
2021/11/30 11:29:29;;;;;;;2.73;0.70;;;10.60;54.70;;;;;;4957481;29;20272;-68
2021/11/30 11:32:01;;;;;;;1.20;0.87;;;10.70;53.50;;;;;;4969282;28;20295;-68
2021/11/30 11:34:32;;;;;;;1.10;0.90;;;10.80;52.30;;;;;;4955473;29;20214;-68
2021/11/30 11:37:01;;;;;;;2.30;1.10;;;10.90;51.70;;;;;;4956838;29;20554;-68
2021/11/30 11:39:31;;;;;;;1.80;0.77;;;11.00;50.80;;;;;;4955933;29;20229;-68
2021/11/30 11:42:01;;;;;;;2.03;0.80;;;11.00;50.50;;;;;;4960703;28;20647;-68
2021/11/30 11:44:28;;;;;;;1.63;1.10;;;11.10;50.10;;;;;;4955122;29;20217;-68
2021/11/30 11:47:04;;;;;;;1.63;1.00;;;11.20;50.50;;;;;;4956513;28;20292;-68
2021/11/30 11:49:48;;;;;;;2.93;0.90;;;11.30;51.30;;;;;;4971495;28;20246;-68
2021/11/30 11:52:20;;;;;;;1.60;1.10;;;11.40;51.90;;;;;;4954333;29;20228;-69
2021/11/30 11:55:06;;;;;;;1.57;0.90;;;11.50;51.70;;;;;;4957148;29;20301;-68
2021/11/30 11:57:34;;;;;;;2.40;1.10;;;11.50;50.50;;;;;;4972178;28;20233;-69
2021/11/30 12:00:24;;;;;;;2.03;1.30;;;11.60;50.80;;;;;;4956550;28;20270;-69
2021/11/30 12:03:01;;;;;;;1.53;0.80;;;11.70;50.80;;;;;;4956612;29;20215;-69
2021/11/30 12:05:52;;;;;;;5.30;1.73;;;11.80;49.30;;;;;;4957154;28;20257;-69
2021/11/30 12:08:32;;;;;;;2.13;1.27;;;11.80;49.00;;;;;;4954070;29;20262;-69
2021/11/30 12:11:01;;;;;;;3.87;1.83;;;11.80;47.50;;;;;;4957467;29;20689;-69
2021/11/30 12:13:29;;;;;;;3.23;1.13;;;11.80;47.30;;;;;;4957542;28;20298;-69
2021/11/30 12:16:08;;;;;;;3.43;1.03;;;11.80;47.20;;;;;;4953476;28;20210;-69
2021/11/30 12:18:37;;;;;;;1.83;1.30;;;11.80;47.00;;;;;;4957251;28;20639;-69
2021/11/30 12:21:20;;;;;;;2.03;1.10;;;11.80;47.90;;;;;;4968212;28;20267;-69
2021/11/30 12:23:54;;;;;;;2.27;0.80;;;11.90;48.90;;;;;;4955624;29;20196;-69
2021/11/30 12:26:28;;;;;;;4.17;1.30;;;11.90;47.60;;;;;;4955704;29;20295;-69
2021/11/30 12:28:55;;;;;;;2.83;1.20;;;11.90;46.90;;;;;;4956236;29;20202;-69
2021/11/30 12:31:28;;;;;;;1.17;0.90;;;11.90;43.80;;;;;;4955767;28;20332;-69
2021/11/30 12:33:55;;;;;;;2.53;1.50;;;11.90;45.10;;;;;;4955310;29;20206;-69
2021/11/30 12:36:33;;;;;;;1.53;1.03;;;11.90;44.90;;;;;;4939820;29;20241;-69
2021/11/30 12:39:02;;;;;;;1.10;1.10;;;11.90;44.90;;;;;;4955982;29;20203;-69
2021/11/30 12:41:36;;;;;;;2.43;0.80;;;11.90;45.40;;;;;;4956702;28;20240;-69
2021/11/30 12:44:17;;;;;;;2.73;0.60;;;11.90;43.20;;;;;;4952990;29;20285;-69
2021/11/30 12:46:46;;;;;;;0.87;0.60;;;11.80;43.90;;;;;;4956791;29;20314;-69
2021/11/30 12:49:32;;;;;;;0.97;0.70;;;11.80;42.60;;;;;;4956158;29;20679;-68
2021/11/30 12:52:19;;;;;;;2.23;0.87;;;11.80;43.80;;;;;;4954092;29;20291;-68
2021/11/30 12:55:14;;;;;;;2.93;0.80;;;11.70;41.90;;;;;;4955857;29;20226;-68
2021/11/30 12:57:44;;;;;;;1.20;0.63;;;11.70;41.90;;;;;;4969431;28;20290;-68
2021/11/30 13:00:17;;;;;;;0.90;0.90;;;11.70;42.40;;;;;;4955010;29;20228;-69
2021/11/30 13:02:48;;;;;;;1.30;0.90;;;11.70;42.90;;;;;;4954526;28;20250;-69
2021/11/30 13:05:20;;;;;;;2.13;0.70;;;11.70;43.80;;;;;;4953706;29;20264;-69
2021/11/30 13:07:47;;;;;;;9.57;1.33;;;11.70;42.80;;;;;;4953947;29;20278;-69
2021/11/30 13:10:21;;;;;;;2.57;0.80;;;11.70;41.70;;;;;;4938319;29;20219;-69
2021/11/30 13:12:50;;;;;;;2.80;0.80;;;11.70;42.50;;;;;;4954337;29;20290;-69
2021/11/30 13:15:18;;;;;;;0.90;0.77;;;11.70;41.50;;;;;;4951954;29;20199;-69
2021/11/30 13:17:46;;;;;;;2.40;0.90;;;11.60;42.80;;;;;;4953075;29;20212;-69
2021/11/30 13:20:17;;;;;;;0.87;0.70;;;11.60;40.70;;;;;;4952814;29;20275;-69
2021/11/30 13:22:47;;;;;;;3.00;1.00;;;11.50;39.30;;;;;;4955102;29;20247;-69
2021/11/30 13:25:34;;;;;;;2.03;0.70;;;11.50;40.20;;;;;;4953172;28;20206;-69
2021/11/30 13:28:05;;;;;;;0.80;0.50;;;11.40;41.40;;;;;;4956485;28;20689;-69